createdAt,value
2023-04-26T00:01:58.593Z,63.80
2023-04-26T00:04:25.675Z,63.40
2023-04-26T00:06:52.653Z,63.80
2023-04-26T00:09:19.678Z,64.00
2023-04-26T00:11:46.621Z,63.70
2023-04-26T00:14:14.014Z,63.80
2023-04-26T00:16:40.736Z,64.10
2023-04-26T00:19:07.507Z,63.90
2023-04-26T00:21:34.198Z,64.30
2023-04-26T00:24:00.980Z,64.10
2023-04-26T00:26:27.733Z,64.00
2023-04-26T00:28:54.678Z,64.20
2023-04-26T00:31:21.756Z,64.50
2023-04-26T00:33:48.769Z,64.80
2023-04-26T00:36:19.129Z,65.20
2023-04-26T00:38:46.662Z,65.70
2023-04-26T00:41:14.198Z,66.20
2023-04-26T00:43:41.312Z,66.70
2023-04-26T00:46:10.025Z,66.70
2023-04-26T00:48:37.507Z,67.80
2023-04-26T00:51:05.702Z,67.50
2023-04-26T00:53:34.127Z,67.30
2023-04-26T00:56:01.428Z,67.50
2023-04-26T00:58:28.804Z,67.10
2023-04-26T01:00:56.078Z,67.30
2023-04-26T01:03:23.058Z,67.20
2023-04-26T01:05:50.414Z,67.50
2023-04-26T01:08:20.682Z,67.90
2023-04-26T01:10:48.570Z,67.80
2023-04-26T01:13:16.464Z,68.20
2023-04-26T01:15:46.973Z,67.80
2023-04-26T01:18:14.904Z,69.00
2023-04-26T01:20:43.028Z,67.80
2023-04-26T01:23:11.486Z,67.90
2023-04-26T01:25:39.123Z,68.10
2023-04-26T01:28:06.083Z,68.20
2023-04-26T01:30:32.980Z,67.90
2023-04-26T01:33:03.263Z,67.80
2023-04-26T01:35:30.021Z,68.00
2023-04-26T01:37:56.696Z,68.00
2023-04-26T01:40:23.455Z,68.00
2023-04-26T01:42:50.371Z,68.30
2023-04-26T01:45:17.520Z,68.10
2023-04-26T01:48:03.200Z,68.20
2023-04-26T01:50:32.192Z,68.30
2023-04-26T01:52:58.867Z,68.10
2023-04-26T01:55:25.547Z,68.10
2023-04-26T01:57:52.270Z,68.20
2023-04-26T02:00:19.353Z,68.30
2023-04-26T02:02:49.331Z,68.70
2023-04-26T02:05:16.199Z,68.40
2023-04-26T02:07:42.981Z,68.40
2023-04-26T02:10:10.015Z,67.40
2023-04-26T02:12:36.778Z,68.70
2023-04-26T02:15:03.825Z,68.80
2023-04-26T02:17:30.776Z,69.20
2023-04-26T02:19:58.530Z,69.00
2023-04-26T02:22:25.330Z,69.00
2023-04-26T02:24:52.886Z,69.20
2023-04-26T02:27:20.164Z,69.50
2023-04-26T02:29:47.322Z,70.10
2023-04-26T02:32:14.428Z,69.60
2023-04-26T02:34:41.884Z,69.50
2023-04-26T02:37:08.990Z,70.10
2023-04-26T02:39:36.220Z,69.80
2023-04-26T02:42:03.184Z,70.90
2023-04-26T02:44:31.095Z,70.00
2023-04-26T02:46:58.196Z,70.80
2023-04-26T02:49:25.054Z,69.90
2023-04-26T02:51:52.063Z,69.60
2023-04-26T02:54:18.977Z,69.30
2023-04-26T02:56:45.947Z,69.40
2023-04-26T02:59:12.736Z,69.40
2023-04-26T03:01:39.599Z,69.10
2023-04-26T03:04:07.134Z,69.30
2023-04-26T03:06:35.696Z,70.10
2023-04-26T03:09:02.653Z,69.80
2023-04-26T03:11:29.431Z,69.80
2023-04-26T03:13:56.800Z,69.80
2023-04-26T03:16:24.167Z,69.90
2023-04-26T03:18:51.349Z,70.30
2023-04-26T03:21:18.373Z,69.90
2023-04-26T03:23:45.268Z,69.80
2023-04-26T03:26:13.015Z,70.00
2023-04-26T03:28:41.381Z,70.00
2023-04-26T03:31:08.201Z,70.00
2023-04-26T03:33:34.988Z,69.60
2023-04-26T03:36:01.812Z,69.40
2023-04-26T03:38:28.791Z,69.60
2023-04-26T03:40:55.538Z,69.40
2023-04-26T03:43:23.429Z,69.60
2023-04-26T03:45:50.490Z,69.60
2023-04-26T03:48:17.404Z,69.90
2023-04-26T03:50:45.870Z,69.70
2023-04-26T03:53:12.924Z,70.60
2023-04-26T03:55:41.727Z,69.90
2023-04-26T03:58:09.226Z,70.60
2023-04-26T04:00:39.771Z,69.40
2023-04-26T04:03:07.484Z,71.50
2023-04-26T04:05:34.730Z,70.30
2023-04-26T04:08:01.990Z,69.80
2023-04-26T04:10:29.643Z,70.20
2023-04-26T04:12:56.467Z,70.30
2023-04-26T04:15:23.341Z,70.10
2023-04-26T04:17:50.148Z,70.10
2023-04-26T04:20:17.073Z,70.30
2023-04-26T04:22:43.951Z,70.30
2023-04-26T04:25:11.014Z,70.20
2023-04-26T04:27:39.016Z,70.40
2023-04-26T04:30:08.546Z,70.00
2023-04-26T04:32:36.914Z,70.80
2023-04-26T04:35:05.228Z,70.30
2023-04-26T04:37:34.866Z,69.60
2023-04-26T04:40:01.769Z,69.20
2023-04-26T04:42:32.246Z,69.60
2023-04-26T04:44:59.708Z,69.80
2023-04-26T04:47:27.574Z,69.60
2023-04-26T04:49:54.701Z,69.50
2023-04-26T04:52:21.834Z,69.70
2023-04-26T04:54:48.920Z,69.50
2023-04-26T04:57:16.713Z,69.40
2023-04-26T04:59:44.664Z,69.40
2023-04-26T05:02:11.569Z,69.30
2023-04-26T05:04:38.537Z,69.50
2023-04-26T05:07:06.645Z,69.50
2023-04-26T05:09:34.344Z,69.70
2023-04-26T05:12:03.069Z,70.00
2023-04-26T05:14:31.271Z,70.60
2023-04-26T05:16:58.445Z,70.60
2023-04-26T05:19:25.922Z,69.70
2023-04-26T05:21:53.266Z,69.70
2023-04-26T05:24:19.995Z,69.80
2023-04-26T05:26:47.663Z,69.10
2023-04-26T05:29:33.043Z,68.80
2023-04-26T05:32:06.347Z,68.60
2023-04-26T05:34:52.972Z,68.50
2023-04-26T05:37:19.734Z,67.90
2023-04-26T05:39:46.719Z,67.60
2023-04-26T05:42:13.526Z,67.20
2023-04-26T05:44:41.063Z,67.20
2023-04-26T05:47:08.359Z,67.20
2023-04-26T05:49:35.097Z,67.40
2023-04-26T05:52:03.510Z,66.70
2023-04-26T05:54:31.509Z,66.70
2023-04-26T05:56:59.132Z,66.30
2023-04-26T05:59:31.230Z,66.00
2023-04-26T06:01:58.790Z,67.10
2023-04-26T06:04:26.034Z,65.60
2023-04-26T06:07:19.456Z,64.90
2023-04-26T06:09:47.349Z,64.50
2023-04-26T06:12:14.784Z,64.20
2023-04-26T06:14:44.358Z,64.10
2023-04-26T06:17:15.972Z,63.50
2023-04-26T06:19:44.309Z,63.90
2023-04-26T06:22:11.054Z,62.60
2023-04-26T06:24:38.648Z,62.00
2023-04-26T06:27:05.374Z,61.80
2023-04-26T06:29:35.414Z,62.30
2023-04-26T06:32:02.598Z,64.20
2023-04-26T06:34:30.347Z,62.30
2023-04-26T06:36:57.194Z,62.40
2023-04-26T06:39:25.704Z,62.70
2023-04-26T06:41:52.656Z,61.90
2023-04-26T06:44:27.345Z,62.20
2023-04-26T06:47:01.539Z,62.10
2023-04-26T06:49:28.270Z,61.80
2023-04-26T06:51:55.033Z,61.30
2023-04-26T06:54:21.797Z,60.80
2023-04-26T06:56:48.501Z,60.60
2023-04-26T06:59:15.205Z,60.40
2023-04-26T07:01:42.291Z,60.10
2023-04-26T07:04:10.889Z,59.70
2023-04-26T07:06:39.035Z,59.10
2023-04-26T07:09:05.724Z,58.80
2023-04-26T07:11:32.450Z,57.60
2023-04-26T07:13:59.231Z,57.70
2023-04-26T07:16:27.463Z,57.10
2023-04-26T07:18:58.007Z,57.90
2023-04-26T07:21:26.611Z,56.30
2023-04-26T07:23:57.063Z,56.10
2023-04-26T07:26:24.935Z,57.80
2023-04-26T07:28:52.435Z,56.60
2023-04-26T07:31:20.003Z,55.50
2023-04-26T07:33:46.872Z,56.00
2023-04-26T07:36:13.622Z,55.20
2023-04-26T07:38:40.451Z,55.70
2023-04-26T07:41:07.257Z,54.20
2023-04-26T07:43:33.966Z,55.20
2023-04-26T07:46:03.709Z,53.80
2023-04-26T07:48:30.563Z,55.10
2023-04-26T07:50:57.472Z,53.30
2023-04-26T07:53:24.301Z,53.00
2023-04-26T07:55:54.690Z,52.40
2023-04-26T07:58:21.517Z,52.30
2023-04-26T08:00:48.188Z,52.40
2023-04-26T08:03:17.048Z,52.60
2023-04-26T08:05:44.403Z,52.90
2023-04-26T08:08:12.513Z,52.40
2023-04-26T08:10:41.800Z,51.30
2023-04-26T08:13:08.821Z,52.10
2023-04-26T08:15:35.607Z,50.10
2023-04-26T08:18:02.359Z,49.00
2023-04-26T08:20:29.132Z,48.70
2023-04-26T08:22:57.024Z,48.50
2023-04-26T08:25:24.131Z,48.60
2023-04-26T08:27:51.172Z,48.10
2023-04-26T08:30:18.911Z,46.80
2023-04-26T08:32:46.345Z,46.30
2023-04-26T08:35:13.364Z,46.50
2023-04-26T08:37:40.205Z,46.30
2023-04-26T08:40:10.113Z,46.50
2023-04-26T08:42:44.279Z,48.20
2023-04-26T08:45:11.669Z,49.70
2023-04-26T08:47:44.324Z,48.80
2023-04-26T08:50:14.495Z,49.80
2023-04-26T08:52:42.444Z,50.50
2023-04-26T08:55:10.192Z,50.60
2023-04-26T08:57:36.958Z,51.20
2023-04-26T09:00:15.688Z,50.60
2023-04-26T09:02:53.226Z,52.10
2023-04-26T09:05:24.307Z,53.60
2023-04-26T09:07:53.372Z,52.30
2023-04-26T09:10:22.285Z,52.60
2023-04-26T09:12:53.651Z,53.90
2023-04-26T09:15:24.714Z,54.80
2023-04-26T09:17:52.212Z,54.70
2023-04-26T09:20:27.647Z,52.90
2023-04-26T09:23:04.942Z,54.80
2023-04-26T09:25:32.615Z,54.70
2023-04-26T09:28:00.280Z,52.20
2023-04-26T09:30:28.439Z,52.10
2023-04-26T09:32:59.223Z,51.40
2023-04-26T09:35:31.944Z,52.00
2023-04-26T09:38:13.538Z,51.00
2023-04-26T09:40:42.894Z,51.00
2023-04-26T09:43:21.052Z,50.10
2023-04-26T09:45:58.592Z,50.40
2023-04-26T09:48:26.685Z,50.70
2023-04-26T09:50:55.163Z,48.30
2023-04-26T09:53:42.342Z,48.80
2023-04-26T09:56:14.216Z,48.80
2023-04-26T09:58:58.240Z,48.20
2023-04-26T10:01:26.636Z,47.80
2023-04-26T10:03:54.492Z,46.10
2023-04-26T10:06:21.418Z,45.40
2023-04-26T10:08:48.159Z,44.90
2023-04-26T10:11:15.434Z,44.90
2023-04-26T10:13:42.879Z,44.90
2023-04-26T10:16:10.500Z,44.30
2023-04-26T10:18:37.942Z,43.40
2023-04-26T10:21:16.851Z,43.00
2023-04-26T10:23:44.143Z,44.50
2023-04-26T10:26:52.816Z,42.80
2023-04-26T10:29:21.147Z,44.00
2023-04-26T10:32:05.967Z,43.10
2023-04-26T10:34:34.852Z,44.40
2023-04-26T10:37:16.252Z,43.40
2023-04-26T10:39:44.592Z,44.20
2023-04-26T10:42:25.885Z,43.50
2023-04-26T10:44:58.406Z,44.30
2023-04-26T10:47:37.491Z,43.30
2023-04-26T10:50:11.430Z,44.30
2023-04-26T10:53:04.183Z,44.20
2023-04-26T10:55:48.913Z,44.60
2023-04-26T10:58:34.492Z,45.30
2023-04-26T11:01:18.230Z,45.10
2023-04-26T11:04:06.151Z,44.70
2023-04-26T11:06:57.775Z,45.40
2023-04-26T11:09:39.353Z,44.70
2023-04-26T11:12:11.039Z,44.50
2023-04-26T11:14:37.965Z,42.60
2023-04-26T11:17:11.756Z,42.00
2023-04-26T11:19:38.856Z,43.50
2023-04-26T11:22:07.981Z,42.70
2023-04-26T11:24:41.285Z,43.70
2023-04-26T11:27:13.927Z,42.80
2023-04-26T11:29:40.653Z,45.50
2023-04-26T11:32:08.205Z,41.90
2023-04-26T11:34:36.791Z,41.00
2023-04-26T11:37:05.167Z,39.90
2023-04-26T11:39:32.857Z,40.30
2023-04-26T11:42:07.283Z,39.60
2023-04-26T11:44:34.410Z,40.80
2023-04-26T11:47:08.492Z,38.20
2023-04-26T11:49:38.774Z,39.70
2023-04-26T11:52:06.408Z,39.20
2023-04-26T11:54:35.675Z,37.70
2023-04-26T11:57:17.791Z,37.80
2023-04-26T11:59:45.787Z,38.00
2023-04-26T12:02:12.666Z,36.30
2023-04-26T12:04:41.174Z,35.80
2023-04-26T12:07:08.590Z,36.60
2023-04-26T12:09:36.640Z,35.40
2023-04-26T12:12:06.283Z,34.70
2023-04-26T12:14:33.272Z,36.50
2023-04-26T12:17:01.947Z,36.50
2023-04-26T12:19:33.028Z,37.40
2023-04-26T12:21:59.762Z,38.40
2023-04-26T12:24:36.786Z,38.00
2023-04-26T12:27:07.787Z,40.10
2023-04-26T12:29:35.337Z,41.20
2023-04-26T12:32:03.175Z,40.20
2023-04-26T12:34:30.109Z,40.60
2023-04-26T12:36:56.921Z,40.60
2023-04-26T12:39:23.659Z,40.80
2023-04-26T12:41:50.428Z,40.40
2023-04-26T12:44:18.373Z,40.30
2023-04-26T12:46:46.687Z,40.50
2023-04-26T12:49:13.554Z,40.80
2023-04-26T12:51:40.716Z,41.00
2023-04-26T12:54:07.677Z,41.60
2023-04-26T12:56:37.870Z,41.90
2023-04-26T12:59:04.700Z,42.10
2023-04-26T13:01:31.792Z,41.50
2023-04-26T13:04:00.663Z,41.50
2023-04-26T13:06:28.650Z,40.80
2023-04-26T13:08:55.395Z,40.50
2023-04-26T13:11:22.145Z,40.00
2023-04-26T13:13:49.515Z,40.40
2023-04-26T13:16:16.452Z,40.20
2023-04-26T13:18:43.286Z,40.30
2023-04-26T13:21:09.973Z,40.30
2023-04-26T13:23:36.712Z,40.50
2023-04-26T13:26:03.404Z,41.40
2023-04-26T13:28:30.290Z,42.30
2023-04-26T13:30:57.089Z,42.20
2023-04-26T13:33:23.865Z,42.60
2023-04-26T13:35:50.883Z,43.40
2023-04-26T13:38:17.939Z,43.60
2023-04-26T13:40:44.978Z,43.70
2023-04-26T13:43:11.904Z,44.20
2023-04-26T13:45:38.741Z,44.10
2023-04-26T13:48:05.739Z,45.30
2023-04-26T13:50:32.600Z,44.60
2023-04-26T13:52:59.942Z,44.70
2023-04-26T13:55:26.791Z,45.80
2023-04-26T13:57:53.550Z,44.80
2023-04-26T14:00:20.689Z,44.70
2023-04-26T14:02:48.056Z,44.90
2023-04-26T14:05:15.251Z,44.10
2023-04-26T14:07:42.189Z,44.00
2023-04-26T14:10:09.699Z,43.70
2023-04-26T14:12:36.537Z,43.90
2023-04-26T14:15:05.627Z,43.00
2023-04-26T14:17:33.048Z,42.80
2023-04-26T14:19:59.773Z,42.80
2023-04-26T14:22:27.049Z,41.90
2023-04-26T14:24:53.799Z,41.80
2023-04-26T14:27:20.845Z,40.80
2023-04-26T14:29:47.675Z,39.90
2023-04-26T14:32:14.412Z,39.80
2023-04-26T14:34:41.988Z,39.30
2023-04-26T14:37:09.101Z,39.30
2023-04-26T14:39:35.912Z,39.80
2023-04-26T14:42:03.971Z,39.10
2023-04-26T14:44:30.843Z,39.40
2023-04-26T14:46:57.687Z,39.40
2023-04-26T14:49:24.490Z,39.00
2023-04-26T14:51:53.395Z,39.00
2023-04-26T14:54:21.170Z,38.40
2023-04-26T14:56:48.614Z,38.30
2023-04-26T14:59:15.596Z,38.40
2023-04-26T15:01:42.465Z,38.50
2023-04-26T15:04:09.509Z,37.90
2023-04-26T15:06:36.543Z,37.60
2023-04-26T15:09:04.375Z,38.00
2023-04-26T15:11:31.197Z,38.10
2023-04-26T15:13:57.926Z,38.40
2023-04-26T15:16:24.826Z,39.90
2023-04-26T15:18:51.611Z,39.10
2023-04-26T15:21:19.322Z,39.90
2023-04-26T15:23:46.449Z,41.20
2023-04-26T15:26:13.516Z,40.40
2023-04-26T15:28:40.668Z,40.30
2023-04-26T15:31:11.191Z,39.70
2023-04-26T15:33:38.097Z,41.30
2023-04-26T15:36:05.412Z,39.60
2023-04-26T15:38:34.466Z,39.50
2023-04-26T15:41:01.348Z,40.20
2023-04-26T15:43:28.157Z,38.80
2023-04-26T15:45:55.177Z,39.50
2023-04-26T15:48:22.091Z,40.50
2023-04-26T15:50:50.458Z,40.60
2023-04-26T15:53:17.453Z,41.10
2023-04-26T15:55:44.449Z,41.60
2023-04-26T15:58:11.242Z,42.10
2023-04-26T16:00:38.022Z,42.10
2023-04-26T16:03:05.003Z,42.30
2023-04-26T16:05:32.022Z,42.60
2023-04-26T16:07:59.709Z,42.10
2023-04-26T16:10:26.872Z,42.40
2023-04-26T16:12:53.644Z,41.80
2023-04-26T16:15:20.652Z,42.00
2023-04-26T16:17:47.487Z,41.90
2023-04-26T16:20:15.067Z,41.70
2023-04-26T16:22:42.267Z,41.60
2023-04-26T16:25:09.899Z,41.60
2023-04-26T16:27:37.122Z,42.30
2023-04-26T16:30:04.218Z,42.80
2023-04-26T16:32:31.394Z,43.40
2023-04-26T16:34:58.145Z,43.70
2023-04-26T16:37:24.924Z,44.60
2023-04-26T16:39:55.718Z,44.40
2023-04-26T16:42:22.738Z,46.00
2023-04-26T16:44:49.439Z,44.30
2023-04-26T16:47:16.225Z,44.60
2023-04-26T16:49:43.054Z,44.50
2023-04-26T16:52:09.815Z,44.60
2023-04-26T16:54:36.622Z,45.10
2023-04-26T16:57:04.364Z,44.50
2023-04-26T16:59:31.154Z,44.60
2023-04-26T17:01:57.912Z,44.80
2023-04-26T17:04:24.837Z,44.70
2023-04-26T17:06:51.840Z,44.80
2023-04-26T17:09:18.621Z,45.10
2023-04-26T17:11:46.449Z,45.00
2023-04-26T17:14:13.350Z,45.00
2023-04-26T17:16:40.309Z,45.10
2023-04-26T17:19:07.084Z,44.90
2023-04-26T17:21:33.818Z,45.00
2023-04-26T17:24:00.569Z,45.20
2023-04-26T17:26:27.657Z,45.40
2023-04-26T17:28:54.588Z,45.40
2023-04-26T17:31:21.441Z,45.80
2023-04-26T17:33:48.260Z,45.70
2023-04-26T17:36:15.089Z,46.10
2023-04-26T17:38:42.059Z,46.10
2023-04-26T17:41:10.952Z,46.70
2023-04-26T17:43:37.746Z,46.70
2023-04-26T17:46:04.562Z,46.90
2023-04-26T17:48:31.414Z,46.90
2023-04-26T17:50:58.139Z,47.00
2023-04-26T17:53:24.910Z,47.00
2023-04-26T17:55:52.883Z,48.40
2023-04-26T17:58:19.627Z,48.10
2023-04-26T18:00:46.376Z,48.10
2023-04-26T18:03:13.725Z,48.20
2023-04-26T18:05:40.851Z,48.30
2023-04-26T18:08:07.595Z,48.60
2023-04-26T18:10:34.351Z,49.00
2023-04-26T18:13:01.052Z,49.00
2023-04-26T18:15:27.858Z,49.00
2023-04-26T18:17:54.645Z,49.50
2023-04-26T18:20:21.575Z,49.50
2023-04-26T18:22:48.285Z,49.70
2023-04-26T18:25:15.473Z,49.70
2023-04-26T18:27:42.272Z,49.80
2023-04-26T18:30:09.615Z,50.00
2023-04-26T18:32:36.541Z,50.70
2023-04-26T18:35:06.119Z,51.20
2023-04-26T18:37:32.958Z,51.00
2023-04-26T18:39:59.762Z,51.40
2023-04-26T18:42:26.587Z,51.70
2023-04-26T18:44:53.528Z,53.10
2023-04-26T18:47:20.523Z,52.10
2023-04-26T18:49:49.871Z,52.30
2023-04-26T18:52:16.547Z,52.30
2023-04-26T18:54:43.249Z,52.50
2023-04-26T18:57:10.641Z,52.60
2023-04-26T18:59:37.542Z,52.70
2023-04-26T19:02:05.254Z,52.70
2023-04-26T19:04:32.552Z,53.20
2023-04-26T19:07:00.712Z,53.30
2023-04-26T19:09:27.470Z,53.40
2023-04-26T19:11:54.234Z,53.60
2023-04-26T19:14:20.995Z,52.90
2023-04-26T19:16:48.008Z,54.10
2023-04-26T19:19:14.858Z,54.10
2023-04-26T19:21:41.789Z,54.20
2023-04-26T19:24:09.563Z,54.30
2023-04-26T19:26:37.786Z,55.40
2023-04-26T19:29:06.673Z,55.90
2023-04-26T19:31:33.944Z,54.60
2023-04-26T19:34:00.800Z,55.10
2023-04-26T19:36:27.626Z,55.10
2023-04-26T19:38:54.963Z,55.40
2023-04-26T19:41:21.860Z,56.20
2023-04-26T19:43:48.738Z,56.10
2023-04-26T19:46:15.795Z,56.50
2023-04-26T19:48:42.785Z,56.70
2023-04-26T19:51:16.325Z,56.70
2023-04-26T19:53:43.720Z,58.90
2023-04-26T19:56:13.316Z,57.50
2023-04-26T19:58:40.050Z,57.00
2023-04-26T20:01:07.049Z,57.40
2023-04-26T20:03:33.959Z,57.60
2023-04-26T20:06:01.012Z,58.00
2023-04-26T20:08:28.767Z,58.20
2023-04-26T20:10:57.021Z,58.50
2023-04-26T20:13:24.011Z,58.80
2023-04-26T20:15:50.708Z,59.10
2023-04-26T20:18:17.377Z,59.30
2023-04-26T20:20:44.201Z,59.60
2023-04-26T20:23:11.234Z,59.70
2023-04-26T20:25:37.991Z,59.90
2023-04-26T20:28:04.899Z,59.90
2023-04-26T20:30:33.644Z,60.30
2023-04-26T20:33:00.787Z,60.30
2023-04-26T20:35:27.633Z,60.70
2023-04-26T20:37:54.355Z,60.50
2023-04-26T20:40:21.718Z,60.80
2023-04-26T20:42:48.491Z,61.00
2023-04-26T20:45:16.530Z,61.30
2023-04-26T20:47:43.596Z,61.50
2023-04-26T20:50:11.049Z,61.60
2023-04-26T20:52:37.774Z,62.40
2023-04-26T20:55:04.875Z,62.00
2023-04-26T20:57:31.596Z,62.40
2023-04-26T20:59:58.326Z,62.10
2023-04-26T21:02:25.160Z,62.20
2023-04-26T21:04:52.335Z,62.50
2023-04-26T21:07:19.139Z,62.80
2023-04-26T21:09:46.033Z,62.90
2023-04-26T21:12:12.725Z,63.00
2023-04-26T21:14:39.388Z,62.90
2023-04-26T21:17:06.141Z,63.30
2023-04-26T21:19:32.901Z,62.90
2023-04-26T21:21:59.644Z,63.10
2023-04-26T21:24:26.584Z,63.10
2023-04-26T21:26:53.521Z,63.30
2023-04-26T21:29:20.393Z,63.50
2023-04-26T21:31:47.331Z,63.30
2023-04-26T21:34:14.158Z,63.70
2023-04-26T21:36:40.873Z,63.70
2023-04-26T21:39:07.798Z,63.80
2023-04-26T21:41:34.588Z,63.80
2023-04-26T21:44:01.316Z,63.80
2023-04-26T21:46:28.062Z,63.90
2023-04-26T21:48:54.815Z,63.90
2023-04-26T21:51:21.588Z,64.10
2023-04-26T21:53:48.408Z,64.20
2023-04-26T21:56:15.140Z,64.30
2023-04-26T21:58:42.040Z,64.40
2023-04-26T22:01:14.391Z,64.70
2023-04-26T22:03:41.399Z,66.80
2023-04-26T22:06:09.365Z,65.80
2023-04-26T22:08:36.242Z,65.50
2023-04-26T22:11:03.392Z,65.00
2023-04-26T22:13:31.279Z,65.20
2023-04-26T22:15:58.347Z,65.90
2023-04-26T22:18:26.283Z,65.20
2023-04-26T22:20:53.562Z,65.20
2023-04-26T22:23:20.439Z,65.40
2023-04-26T22:25:47.210Z,65.50
2023-04-26T22:28:13.882Z,65.60
2023-04-26T22:30:40.692Z,65.40
2023-04-26T22:33:07.573Z,65.70
2023-04-26T22:35:35.213Z,65.60
2023-04-26T22:38:02.080Z,66.80
2023-04-26T22:40:28.831Z,65.90
2023-04-26T22:42:55.555Z,66.00
2023-04-26T22:45:22.817Z,66.10
2023-04-26T22:47:49.746Z,66.30
2023-04-26T22:50:16.592Z,66.30
2023-04-26T22:52:43.344Z,66.40
2023-04-26T22:55:10.281Z,67.50
2023-04-26T22:57:37.529Z,66.50
2023-04-26T23:00:06.232Z,66.40
2023-04-26T23:02:33.134Z,67.00
2023-04-26T23:05:00.077Z,66.20
2023-04-26T23:07:26.990Z,66.40
2023-04-26T23:09:54.096Z,66.50
2023-04-26T23:12:20.841Z,66.60
2023-04-26T23:14:48.634Z,66.60
2023-04-26T23:17:15.520Z,66.80
2023-04-26T23:19:42.729Z,66.80
2023-04-26T23:22:09.634Z,67.00
2023-04-26T23:24:36.477Z,67.10
2023-04-26T23:27:03.658Z,67.00
2023-04-26T23:29:30.437Z,67.00
2023-04-26T23:31:57.205Z,67.10
2023-04-26T23:34:23.986Z,67.20
2023-04-26T23:36:50.864Z,67.30
2023-04-26T23:39:17.765Z,67.50
2023-04-26T23:41:45.491Z,67.50
2023-04-26T23:44:12.199Z,68.70
2023-04-26T23:46:38.996Z,67.70
2023-04-26T23:49:06.051Z,67.90
2023-04-26T23:51:33.248Z,67.90
2023-04-26T23:53:59.939Z,67.90
2023-04-26T23:56:26.674Z,67.80
2023-04-26T23:58:54.245Z,67.90
